sensor_id;sensor_type;location;lat;lon;timestamp;P1;durP1;ratioP1;P2;durP2;ratioP2
2338;SDS011;1180;51.438;6.978;2023-12-20T00:01:48;16.67;;;12.47;;
2338;SDS011;1180;51.438;6.978;2023-12-20T00:04:14;18.47;;;13.83;;
2338;SDS011;1180;51.438;6.978;2023-12-20T00:06:40;19.87;;;11.87;;
2338;SDS011;1180;51.438;6.978;2023-12-20T00:09:06;17.07;;;12.23;;
2338;SDS011;1180;51.438;6.978;2023-12-20T00:11:31;19.90;;;12.30;;
2338;SDS011;1180;51.438;6.978;2023-12-20T00:13:57;16.83;;;11.07;;
2338;SDS011;1180;51.438;6.978;2023-12-20T00:16:23;13.23;;;10.53;;
2338;SDS011;1180;51.438;6.978;2023-12-20T00:18:49;16.93;;;10.27;;
2338;SDS011;1180;51.438;6.978;2023-12-20T00:21:15;14.57;;;9.57;;
2338;SDS011;1180;51.438;6.978;2023-12-20T00:23:40;15.40;;;10.60;;
2338;SDS011;1180;51.438;6.978;2023-12-20T00:26:06;14.67;;;10.63;;
2338;SDS011;1180;51.438;6.978;2023-12-20T00:28:32;18.37;;;10.37;;
2338;SDS011;1180;51.438;6.978;2023-12-20T00:30:58;15.40;;;9.30;;
2338;SDS011;1180;51.438;6.978;2023-12-20T00:33:24;17.47;;;10.40;;
2338;SDS011;1180;51.438;6.978;2023-12-20T00:35:50;14.40;;;10.00;;
2338;SDS011;1180;51.438;6.978;2023-12-20T00:38:16;14.90;;;9.00;;
2338;SDS011;1180;51.438;6.978;2023-12-20T00:40:41;14.40;;;9.80;;
2338;SDS011;1180;51.438;6.978;2023-12-20T00:43:07;15.57;;;9.77;;
2338;SDS011;1180;51.438;6.978;2023-12-20T00:45:33;12.40;;;8.47;;
2338;SDS011;1180;51.438;6.978;2023-12-20T00:47:59;14.87;;;8.60;;
2338;SDS011;1180;51.438;6.978;2023-12-20T00:50:25;12.33;;;8.20;;
2338;SDS011;1180;51.438;6.978;2023-12-20T00:52:51;11.60;;;8.13;;
2338;SDS011;1180;51.438;6.978;2023-12-20T00:55:17;11.60;;;8.27;;
2338;SDS011;1180;51.438;6.978;2023-12-20T00:57:43;11.00;;;7.20;;
2338;SDS011;1180;51.438;6.978;2023-12-20T01:00:09;11.30;;;7.57;;
2338;SDS011;1180;51.438;6.978;2023-12-20T01:02:35;10.17;;;6.77;;
2338;SDS011;1180;51.438;6.978;2023-12-20T01:05:01;10.50;;;7.13;;
2338;SDS011;1180;51.438;6.978;2023-12-20T01:07:28;11.30;;;6.10;;
2338;SDS011;1180;51.438;6.978;2023-12-20T01:09:53;10.00;;;6.80;;
2338;SDS011;1180;51.438;6.978;2023-12-20T01:12:19;10.30;;;6.03;;
2338;SDS011;1180;51.438;6.978;2023-12-20T01:14:45;10.90;;;7.80;;
2338;SDS011;1180;51.438;6.978;2023-12-20T01:17:12;10.30;;;6.53;;
2338;SDS011;1180;51.438;6.978;2023-12-20T01:19:37;11.37;;;8.50;;
2338;SDS011;1180;51.438;6.978;2023-12-20T01:22:03;11.03;;;8.30;;
2338;SDS011;1180;51.438;6.978;2023-12-20T01:24:29;16.50;;;7.93;;
2338;SDS011;1180;51.438;6.978;2023-12-20T01:26:54;10.77;;;6.87;;
2338;SDS011;1180;51.438;6.978;2023-12-20T01:29:20;13.80;;;6.60;;
2338;SDS011;1180;51.438;6.978;2023-12-20T01:31:46;16.20;;;7.20;;
2338;SDS011;1180;51.438;6.978;2023-12-20T01:34:12;13.27;;;7.67;;
2338;SDS011;1180;51.438;6.978;2023-12-20T01:36:38;13.63;;;6.63;;
2338;SDS011;1180;51.438;6.978;2023-12-20T01:39:04;12.70;;;7.93;;
2338;SDS011;1180;51.438;6.978;2023-12-20T01:41:29;15.77;;;7.40;;
2338;SDS011;1180;51.438;6.978;2023-12-20T01:43:55;15.23;;;6.97;;
2338;SDS011;1180;51.438;6.978;2023-12-20T01:46:21;12.40;;;6.20;;
2338;SDS011;1180;51.438;6.978;2023-12-20T01:48:47;15.00;;;7.33;;
2338;SDS011;1180;51.438;6.978;2023-12-20T01:51:14;10.83;;;6.60;;
2338;SDS011;1180;51.438;6.978;2023-12-20T01:53:40;14.53;;;7.97;;
2338;SDS011;1180;51.438;6.978;2023-12-20T01:56:07;13.10;;;8.27;;
2338;SDS011;1180;51.438;6.978;2023-12-20T01:58:33;10.00;;;7.07;;
2338;SDS011;1180;51.438;6.978;2023-12-20T02:01:02;11.30;;;6.73;;
2338;SDS011;1180;51.438;6.978;2023-12-20T02:03:28;11.33;;;5.30;;
2338;SDS011;1180;51.438;6.978;2023-12-20T02:05:53;12.00;;;6.30;;
2338;SDS011;1180;51.438;6.978;2023-12-20T02:08:19;8.60;;;5.77;;
2338;SDS011;1180;51.438;6.978;2023-12-20T02:10:45;9.30;;;5.70;;
2338;SDS011;1180;51.438;6.978;2023-12-20T02:13:11;8.30;;;5.03;;
2338;SDS011;1180;51.438;6.978;2023-12-20T02:15:36;9.53;;;5.70;;
2338;SDS011;1180;51.438;6.978;2023-12-20T02:18:02;8.40;;;5.70;;
2338;SDS011;1180;51.438;6.978;2023-12-20T02:20:28;12.90;;;5.83;;
2338;SDS011;1180;51.438;6.978;2023-12-20T02:22:54;14.10;;;5.77;;
2338;SDS011;1180;51.438;6.978;2023-12-20T02:25:20;10.67;;;5.57;;
2338;SDS011;1180;51.438;6.978;2023-12-20T02:27:45;9.80;;;4.77;;
2338;SDS011;1180;51.438;6.978;2023-12-20T02:30:11;12.03;;;6.03;;
2338;SDS011;1180;51.438;6.978;2023-12-20T02:32:37;10.43;;;5.27;;
2338;SDS011;1180;51.438;6.978;2023-12-20T02:35:03;8.50;;;6.30;;
2338;SDS011;1180;51.438;6.978;2023-12-20T02:37:29;13.47;;;5.17;;
2338;SDS011;1180;51.438;6.978;2023-12-20T02:39:55;10.87;;;5.73;;
2338;SDS011;1180;51.438;6.978;2023-12-20T02:42:20;14.80;;;6.37;;
2338;SDS011;1180;51.438;6.978;2023-12-20T02:44:46;8.53;;;5.00;;
2338;SDS011;1180;51.438;6.978;2023-12-20T02:47:12;9.23;;;4.90;;
2338;SDS011;1180;51.438;6.978;2023-12-20T02:49:37;12.87;;;6.40;;
2338;SDS011;1180;51.438;6.978;2023-12-20T02:52:03;11.73;;;6.70;;
2338;SDS011;1180;51.438;6.978;2023-12-20T02:54:29;12.97;;;5.53;;
2338;SDS011;1180;51.438;6.978;2023-12-20T02:56:54;9.17;;;5.30;;
2338;SDS011;1180;51.438;6.978;2023-12-20T02:59:20;10.10;;;5.60;;
2338;SDS011;1180;51.438;6.978;2023-12-20T03:01:45;9.50;;;5.00;;
2338;SDS011;1180;51.438;6.978;2023-12-20T03:04:12;9.20;;;5.70;;
2338;SDS011;1180;51.438;6.978;2023-12-20T03:06:38;12.20;;;6.23;;
2338;SDS011;1180;51.438;6.978;2023-12-20T03:09:03;11.97;;;6.80;;
2338;SDS011;1180;51.438;6.978;2023-12-20T03:11:29;11.17;;;5.03;;
2338;SDS011;1180;51.438;6.978;2023-12-20T03:13:55;7.90;;;4.40;;
2338;SDS011;1180;51.438;6.978;2023-12-20T03:16:21;11.00;;;5.10;;
2338;SDS011;1180;51.438;6.978;2023-12-20T03:18:46;10.10;;;4.80;;
2338;SDS011;1180;51.438;6.978;2023-12-20T03:21:12;10.73;;;5.20;;
2338;SDS011;1180;51.438;6.978;2023-12-20T03:23:38;9.30;;;4.83;;
2338;SDS011;1180;51.438;6.978;2023-12-20T03:26:05;9.30;;;4.70;;
2338;SDS011;1180;51.438;6.978;2023-12-20T03:28:32;10.17;;;4.37;;
2338;SDS011;1180;51.438;6.978;2023-12-20T03:30:58;10.37;;;4.87;;
2338;SDS011;1180;51.438;6.978;2023-12-20T03:33:23;9.17;;;4.57;;
2338;SDS011;1180;51.438;6.978;2023-12-20T03:35:49;10.10;;;4.23;;
2338;SDS011;1180;51.438;6.978;2023-12-20T03:38:15;8.33;;;4.23;;
2338;SDS011;1180;51.438;6.978;2023-12-20T03:40:40;9.57;;;3.93;;
2338;SDS011;1180;51.438;6.978;2023-12-20T03:43:06;13.03;;;4.67;;
2338;SDS011;1180;51.438;6.978;2023-12-20T03:45:31;11.90;;;4.00;;
2338;SDS011;1180;51.438;6.978;2023-12-20T03:47:57;9.30;;;4.07;;
2338;SDS011;1180;51.438;6.978;2023-12-20T03:50:23;11.90;;;3.97;;
2338;SDS011;1180;51.438;6.978;2023-12-20T03:52:49;7.67;;;3.00;;
2338;SDS011;1180;51.438;6.978;2023-12-20T03:55:15;10.90;;;3.10;;
2338;SDS011;1180;51.438;6.978;2023-12-20T03:57:41;4.93;;;3.10;;
2338;SDS011;1180;51.438;6.978;2023-12-20T04:00:07;8.60;;;3.10;;
2338;SDS011;1180;51.438;6.978;2023-12-20T04:02:36;9.63;;;3.10;;
2338;SDS011;1180;51.438;6.978;2023-12-20T04:05:02;12.27;;;2.83;;
2338;SDS011;1180;51.438;6.978;2023-12-20T04:07:30;12.00;;;3.27;;
2338;SDS011;1180;51.438;6.978;2023-12-20T04:09:56;12.13;;;3.63;;
2338;SDS011;1180;51.438;6.978;2023-12-20T04:12:22;9.77;;;3.53;;
2338;SDS011;1180;51.438;6.978;2023-12-20T04:14:48;11.00;;;3.93;;
2338;SDS011;1180;51.438;6.978;2023-12-20T04:17:15;9.70;;;3.50;;
2338;SDS011;1180;51.438;6.978;2023-12-20T04:19:41;9.40;;;2.70;;
2338;SDS011;1180;51.438;6.978;2023-12-20T04:22:07;8.83;;;3.23;;
2338;SDS011;1180;51.438;6.978;2023-12-20T04:24:33;11.70;;;3.47;;
2338;SDS011;1180;51.438;6.978;2023-12-20T04:26:58;6.53;;;3.43;;
2338;SDS011;1180;51.438;6.978;2023-12-20T04:29:24;8.20;;;3.77;;
2338;SDS011;1180;51.438;6.978;2023-12-20T04:31:50;8.97;;;3.17;;
2338;SDS011;1180;51.438;6.978;2023-12-20T04:34:18;9.67;;;3.40;;
2338;SDS011;1180;51.438;6.978;2023-12-20T04:36:44;4.70;;;3.07;;
2338;SDS011;1180;51.438;6.978;2023-12-20T04:39:11;17.70;;;5.60;;
2338;SDS011;1180;51.438;6.978;2023-12-20T04:41:38;9.80;;;4.23;;
2338;SDS011;1180;51.438;6.978;2023-12-20T04:44:05;15.47;;;5.90;;
2338;SDS011;1180;51.438;6.978;2023-12-20T04:46:31;6.80;;;4.00;;
2338;SDS011;1180;51.438;6.978;2023-12-20T04:48:57;16.73;;;4.57;;
2338;SDS011;1180;51.438;6.978;2023-12-20T04:51:22;11.20;;;4.63;;
2338;SDS011;1180;51.438;6.978;2023-12-20T04:53:48;8.90;;;4.97;;
2338;SDS011;1180;51.438;6.978;2023-12-20T04:56:13;13.67;;;4.63;;
2338;SDS011;1180;51.438;6.978;2023-12-20T04:58:39;8.13;;;4.30;;
2338;SDS011;1180;51.438;6.978;2023-12-20T05:01:08;13.03;;;5.10;;
2338;SDS011;1180;51.438;6.978;2023-12-20T05:03:34;13.93;;;4.53;;
2338;SDS011;1180;51.438;6.978;2023-12-20T05:06:00;11.87;;;4.57;;
2338;SDS011;1180;51.438;6.978;2023-12-20T05:08:25;17.63;;;5.80;;
2338;SDS011;1180;51.438;6.978;2023-12-20T05:10:53;7.30;;;4.23;;
2338;SDS011;1180;51.438;6.978;2023-12-20T05:13:20;13.60;;;4.57;;
2338;SDS011;1180;51.438;6.978;2023-12-20T05:15:46;9.17;;;3.90;;
2338;SDS011;1180;51.438;6.978;2023-12-20T05:18:12;12.53;;;6.07;;
2338;SDS011;1180;51.438;6.978;2023-12-20T05:20:38;8.77;;;4.50;;
2338;SDS011;1180;51.438;6.978;2023-12-20T05:23:04;14.90;;;4.90;;
2338;SDS011;1180;51.438;6.978;2023-12-20T05:25:30;12.50;;;5.20;;
2338;SDS011;1180;51.438;6.978;2023-12-20T05:27:56;13.10;;;5.00;;
2338;SDS011;1180;51.438;6.978;2023-12-20T05:30:21;11.40;;;4.97;;
2338;SDS011;1180;51.438;6.978;2023-12-20T05:32:47;13.13;;;4.60;;
2338;SDS011;1180;51.438;6.978;2023-12-20T05:35:13;13.03;;;4.73;;
2338;SDS011;1180;51.438;6.978;2023-12-20T05:37:39;12.57;;;5.03;;
2338;SDS011;1180;51.438;6.978;2023-12-20T05:40:04;14.27;;;5.67;;
2338;SDS011;1180;51.438;6.978;2023-12-20T05:42:31;14.30;;;5.17;;
2338;SDS011;1180;51.438;6.978;2023-12-20T05:44:57;14.30;;;5.20;;
2338;SDS011;1180;51.438;6.978;2023-12-20T05:47:22;7.67;;;4.60;;
2338;SDS011;1180;51.438;6.978;2023-12-20T05:49:48;9.53;;;4.50;;
2338;SDS011;1180;51.438;6.978;2023-12-20T05:52:15;16.70;;;6.07;;
2338;SDS011;1180;51.438;6.978;2023-12-20T05:54:41;9.40;;;5.40;;
2338;SDS011;1180;51.438;6.978;2023-12-20T05:57:07;9.17;;;5.10;;
2338;SDS011;1180;51.438;6.978;2023-12-20T05:59:32;10.30;;;4.97;;
2338;SDS011;1180;51.438;6.978;2023-12-20T06:01:58;13.67;;;5.43;;
2338;SDS011;1180;51.438;6.978;2023-12-20T06:04:24;13.57;;;5.83;;
2338;SDS011;1180;51.438;6.978;2023-12-20T06:06:50;14.43;;;6.13;;
2338;SDS011;1180;51.438;6.978;2023-12-20T06:09:15;14.10;;;6.43;;
2338;SDS011;1180;51.438;6.978;2023-12-20T06:11:41;15.77;;;6.07;;
2338;SDS011;1180;51.438;6.978;2023-12-20T06:14:07;13.83;;;5.90;;
2338;SDS011;1180;51.438;6.978;2023-12-20T06:16:33;18.43;;;6.23;;
2338;SDS011;1180;51.438;6.978;2023-12-20T06:18:59;11.60;;;4.70;;
2338;SDS011;1180;51.438;6.978;2023-12-20T06:21:25;11.17;;;6.27;;
2338;SDS011;1180;51.438;6.978;2023-12-20T06:23:50;18.77;;;6.90;;
2338;SDS011;1180;51.438;6.978;2023-12-20T06:26:16;16.30;;;6.93;;
2338;SDS011;1180;51.438;6.978;2023-12-20T06:28:41;13.40;;;5.50;;
2338;SDS011;1180;51.438;6.978;2023-12-20T06:31:08;9.13;;;4.60;;
2338;SDS011;1180;51.438;6.978;2023-12-20T06:33:34;8.90;;;5.27;;
2338;SDS011;1180;51.438;6.978;2023-12-20T06:36:00;11.47;;;5.53;;
2338;SDS011;1180;51.438;6.978;2023-12-20T06:38:26;11.00;;;5.73;;
2338;SDS011;1180;51.438;6.978;2023-12-20T06:40:52;8.13;;;4.67;;
2338;SDS011;1180;51.438;6.978;2023-12-20T06:43:17;17.40;;;6.13;;
2338;SDS011;1180;51.438;6.978;2023-12-20T06:45:43;11.30;;;5.87;;
2338;SDS011;1180;51.438;6.978;2023-12-20T06:48:09;9.17;;;5.50;;
2338;SDS011;1180;51.438;6.978;2023-12-20T06:50:37;10.90;;;4.83;;
2338;SDS011;1180;51.438;6.978;2023-12-20T06:53:05;16.13;;;6.13;;
2338;SDS011;1180;51.438;6.978;2023-12-20T06:55:32;12.73;;;5.37;;
2338;SDS011;1180;51.438;6.978;2023-12-20T06:58:00;15.10;;;6.17;;
2338;SDS011;1180;51.438;6.978;2023-12-20T07:00:26;15.20;;;5.70;;
2338;SDS011;1180;51.438;6.978;2023-12-20T07:02:52;16.43;;;7.60;;
2338;SDS011;1180;51.438;6.978;2023-12-20T07:05:18;10.17;;;5.80;;
2338;SDS011;1180;51.438;6.978;2023-12-20T07:07:45;13.27;;;5.40;;
2338;SDS011;1180;51.438;6.978;2023-12-20T07:10:13;19.90;;;7.03;;
2338;SDS011;1180;51.438;6.978;2023-12-20T07:12:39;12.73;;;4.67;;
2338;SDS011;1180;51.438;6.978;2023-12-20T07:15:05;14.00;;;5.80;;
2338;SDS011;1180;51.438;6.978;2023-12-20T07:17:32;11.80;;;4.87;;
2338;SDS011;1180;51.438;6.978;2023-12-20T07:19:58;10.20;;;5.03;;
2338;SDS011;1180;51.438;6.978;2023-12-20T07:22:28;10.00;;;5.03;;
2338;SDS011;1180;51.438;6.978;2023-12-20T07:24:57;13.17;;;5.63;;
2338;SDS011;1180;51.438;6.978;2023-12-20T07:27:23;8.67;;;4.70;;
2338;SDS011;1180;51.438;6.978;2023-12-20T07:29:48;12.90;;;5.20;;
2338;SDS011;1180;51.438;6.978;2023-12-20T07:32:14;12.30;;;5.10;;
2338;SDS011;1180;51.438;6.978;2023-12-20T07:34:39;18.23;;;5.47;;
2338;SDS011;1180;51.438;6.978;2023-12-20T07:37:05;10.70;;;5.40;;
2338;SDS011;1180;51.438;6.978;2023-12-20T07:39:30;13.43;;;6.10;;
2338;SDS011;1180;51.438;6.978;2023-12-20T07:41:56;16.30;;;6.70;;
2338;SDS011;1180;51.438;6.978;2023-12-20T07:44:21;8.23;;;5.10;;
2338;SDS011;1180;51.438;6.978;2023-12-20T07:46:46;16.87;;;5.43;;
2338;SDS011;1180;51.438;6.978;2023-12-20T07:49:13;19.23;;;6.47;;
2338;SDS011;1180;51.438;6.978;2023-12-20T07:51:40;9.30;;;5.17;;
2338;SDS011;1180;51.438;6.978;2023-12-20T07:54:05;10.67;;;5.80;;
2338;SDS011;1180;51.438;6.978;2023-12-20T07:56:33;8.03;;;5.37;;
2338;SDS011;1180;51.438;6.978;2023-12-20T07:58:58;11.50;;;4.43;;
2338;SDS011;1180;51.438;6.978;2023-12-20T08:01:24;19.73;;;5.23;;
2338;SDS011;1180;51.438;6.978;2023-12-20T08:03:49;19.20;;;4.97;;
2338;SDS011;1180;51.438;6.978;2023-12-20T08:06:15;8.30;;;4.43;;
2338;SDS011;1180;51.438;6.978;2023-12-20T08:08:42;18.40;;;6.27;;
2338;SDS011;1180;51.438;6.978;2023-12-20T08:11:08;14.20;;;5.33;;
2338;SDS011;1180;51.438;6.978;2023-12-20T08:13:33;18.30;;;5.97;;
2338;SDS011;1180;51.438;6.978;2023-12-20T08:15:59;11.97;;;6.03;;
2338;SDS011;1180;51.438;6.978;2023-12-20T08:18:24;9.20;;;4.50;;
2338;SDS011;1180;51.438;6.978;2023-12-20T08:20:50;11.93;;;4.70;;
2338;SDS011;1180;51.438;6.978;2023-12-20T08:23:18;11.47;;;4.80;;
2338;SDS011;1180;51.438;6.978;2023-12-20T08:25:44;7.90;;;3.77;;
2338;SDS011;1180;51.438;6.978;2023-12-20T08:28:09;14.03;;;4.43;;
2338;SDS011;1180;51.438;6.978;2023-12-20T08:30:35;11.63;;;5.17;;
2338;SDS011;1180;51.438;6.978;2023-12-20T08:33:01;11.03;;;4.80;;
2338;SDS011;1180;51.438;6.978;2023-12-20T08:35:27;12.20;;;4.60;;
2338;SDS011;1180;51.438;6.978;2023-12-20T08:37:53;14.90;;;5.80;;
2338;SDS011;1180;51.438;6.978;2023-12-20T08:40:18;12.50;;;5.47;;
2338;SDS011;1180;51.438;6.978;2023-12-20T08:42:44;10.83;;;5.20;;
2338;SDS011;1180;51.438;6.978;2023-12-20T08:45:09;11.00;;;5.00;;
2338;SDS011;1180;51.438;6.978;2023-12-20T08:47:35;16.43;;;5.47;;
2338;SDS011;1180;51.438;6.978;2023-12-20T08:50:01;18.63;;;5.63;;
2338;SDS011;1180;51.438;6.978;2023-12-20T08:52:27;12.43;;;5.33;;
2338;SDS011;1180;51.438;6.978;2023-12-20T08:54:54;13.67;;;4.70;;
2338;SDS011;1180;51.438;6.978;2023-12-20T08:57:20;9.60;;;4.27;;
2338;SDS011;1180;51.438;6.978;2023-12-20T08:59:46;12.57;;;4.83;;
2338;SDS011;1180;51.438;6.978;2023-12-20T09:02:12;7.40;;;3.70;;
2338;SDS011;1180;51.438;6.978;2023-12-20T09:04:38;9.53;;;4.00;;
2338;SDS011;1180;51.438;6.978;2023-12-20T09:07:04;12.37;;;4.40;;
2338;SDS011;1180;51.438;6.978;2023-12-20T09:09:29;15.13;;;5.17;;
2338;SDS011;1180;51.438;6.978;2023-12-20T09:11:57;14.30;;;6.10;;
2338;SDS011;1180;51.438;6.978;2023-12-20T09:14:22;10.23;;;3.93;;
2338;SDS011;1180;51.438;6.978;2023-12-20T09:16:48;8.20;;;4.03;;
2338;SDS011;1180;51.438;6.978;2023-12-20T09:19:15;17.20;;;3.63;;
2338;SDS011;1180;51.438;6.978;2023-12-20T09:21:41;16.50;;;4.30;;
2338;SDS011;1180;51.438;6.978;2023-12-20T09:24:06;17.73;;;4.93;;
2338;SDS011;1180;51.438;6.978;2023-12-20T09:26:31;14.73;;;4.60;;
2338;SDS011;1180;51.438;6.978;2023-12-20T09:28:57;11.80;;;4.23;;
2338;SDS011;1180;51.438;6.978;2023-12-20T09:31:22;13.30;;;4.80;;
2338;SDS011;1180;51.438;6.978;2023-12-20T09:33:47;9.53;;;3.67;;
2338;SDS011;1180;51.438;6.978;2023-12-20T09:36:13;9.93;;;3.73;;
2338;SDS011;1180;51.438;6.978;2023-12-20T09:38:39;8.50;;;3.70;;
2338;SDS011;1180;51.438;6.978;2023-12-20T09:41:04;5.93;;;3.70;;
2338;SDS011;1180;51.438;6.978;2023-12-20T09:43:31;16.47;;;4.77;;
2338;SDS011;1180;51.438;6.978;2023-12-20T09:46:00;10.00;;;4.23;;
2338;SDS011;1180;51.438;6.978;2023-12-20T09:48:27;11.03;;;4.33;;
2338;SDS011;1180;51.438;6.978;2023-12-20T09:50:53;9.60;;;3.90;;
2338;SDS011;1180;51.438;6.978;2023-12-20T09:53:18;17.23;;;5.33;;
2338;SDS011;1180;51.438;6.978;2023-12-20T09:55:44;6.53;;;3.77;;
2338;SDS011;1180;51.438;6.978;2023-12-20T09:58:10;15.47;;;5.63;;
2338;SDS011;1180;51.438;6.978;2023-12-20T10:00:35;13.93;;;4.10;;
2338;SDS011;1180;51.438;6.978;2023-12-20T10:03:00;10.77;;;4.83;;
2338;SDS011;1180;51.438;6.978;2023-12-20T10:07:53;10.33;;;4.80;;
2338;SDS011;1180;51.438;6.978;2023-12-20T10:10:18;11.33;;;3.57;;
2338;SDS011;1180;51.438;6.978;2023-12-20T10:13:02;8.60;;;4.07;;
2338;SDS011;1180;51.438;6.978;2023-12-20T10:15:30;9.20;;;3.80;;
2338;SDS011;1180;51.438;6.978;2023-12-20T10:17:56;16.00;;;5.73;;
2338;SDS011;1180;51.438;6.978;2023-12-20T10:20:21;13.10;;;3.60;;
2338;SDS011;1180;51.438;6.978;2023-12-20T10:22:47;15.97;;;4.77;;
2338;SDS011;1180;51.438;6.978;2023-12-20T10:25:13;7.77;;;3.83;;
2338;SDS011;1180;51.438;6.978;2023-12-20T10:27:39;12.70;;;3.97;;
2338;SDS011;1180;51.438;6.978;2023-12-20T10:30:04;10.90;;;4.83;;
2338;SDS011;1180;51.438;6.978;2023-12-20T10:32:30;14.93;;;4.50;;
2338;SDS011;1180;51.438;6.978;2023-12-20T10:34:56;7.40;;;3.50;;
2338;SDS011;1180;51.438;6.978;2023-12-20T10:37:22;10.83;;;4.50;;
2338;SDS011;1180;51.438;6.978;2023-12-20T10:39:51;14.40;;;4.90;;
2338;SDS011;1180;51.438;6.978;2023-12-20T10:42:21;14.23;;;4.60;;
2338;SDS011;1180;51.438;6.978;2023-12-20T10:44:47;8.03;;;4.93;;
2338;SDS011;1180;51.438;6.978;2023-12-20T10:47:14;7.83;;;4.67;;
2338;SDS011;1180;51.438;6.978;2023-12-20T10:49:40;15.60;;;5.50;;
2338;SDS011;1180;51.438;6.978;2023-12-20T10:52:06;10.40;;;4.20;;
2338;SDS011;1180;51.438;6.978;2023-12-20T10:54:34;10.63;;;4.13;;
2338;SDS011;1180;51.438;6.978;2023-12-20T10:56:59;14.20;;;3.77;;
2338;SDS011;1180;51.438;6.978;2023-12-20T10:59:25;14.47;;;4.83;;
2338;SDS011;1180;51.438;6.978;2023-12-20T11:01:54;13.37;;;5.00;;
2338;SDS011;1180;51.438;6.978;2023-12-20T11:04:34;8.53;;;4.00;;
2338;SDS011;1180;51.438;6.978;2023-12-20T11:07:15;12.70;;;3.77;;
2338;SDS011;1180;51.438;6.978;2023-12-20T11:10:03;19.50;;;5.00;;
2338;SDS011;1180;51.438;6.978;2023-12-20T11:15:37;10.40;;;4.13;;
2338;SDS011;1180;51.438;6.978;2023-12-20T11:18:03;12.80;;;4.60;;
2338;SDS011;1180;51.438;6.978;2023-12-20T11:20:40;10.23;;;3.67;;
2338;SDS011;1180;51.438;6.978;2023-12-20T11:23:07;13.60;;;4.57;;
2338;SDS011;1180;51.438;6.978;2023-12-20T11:25:51;8.57;;;4.67;;
2338;SDS011;1180;51.438;6.978;2023-12-20T11:28:25;6.90;;;3.40;;
2338;SDS011;1180;51.438;6.978;2023-12-20T11:30:52;11.30;;;4.00;;
2338;SDS011;1180;51.438;6.978;2023-12-20T11:33:22;10.83;;;5.40;;
2338;SDS011;1180;51.438;6.978;2023-12-20T11:35:48;18.00;;;3.83;;
2338;SDS011;1180;51.438;6.978;2023-12-20T11:38:14;10.30;;;3.77;;
2338;SDS011;1180;51.438;6.978;2023-12-20T11:40:41;14.70;;;3.97;;
2338;SDS011;1180;51.438;6.978;2023-12-20T11:43:07;11.80;;;5.40;;
2338;SDS011;1180;51.438;6.978;2023-12-20T11:45:33;11.70;;;4.90;;
2338;SDS011;1180;51.438;6.978;2023-12-20T11:48:00;7.77;;;3.27;;
2338;SDS011;1180;51.438;6.978;2023-12-20T11:50:27;9.87;;;4.10;;
2338;SDS011;1180;51.438;6.978;2023-12-20T11:52:55;15.53;;;5.50;;
2338;SDS011;1180;51.438;6.978;2023-12-20T11:55:23;11.30;;;5.17;;
2338;SDS011;1180;51.438;6.978;2023-12-20T11:57:51;13.30;;;5.33;;
2338;SDS011;1180;51.438;6.978;2023-12-20T12:00:19;7.87;;;4.23;;
2338;SDS011;1180;51.438;6.978;2023-12-20T12:02:58;8.87;;;4.57;;
2338;SDS011;1180;51.438;6.978;2023-12-20T12:05:24;15.20;;;5.47;;
2338;SDS011;1180;51.438;6.978;2023-12-20T12:07:50;15.05;;;5.30;;
2338;SDS011;1180;51.438;6.978;2023-12-20T12:10:17;7.83;;;4.57;;
2338;SDS011;1180;51.438;6.978;2023-12-20T12:12:43;12.60;;;6.00;;
2338;SDS011;1180;51.438;6.978;2023-12-20T12:15:08;15.65;;;6.43;;
2338;SDS011;1180;51.438;6.978;2023-12-20T12:17:35;13.07;;;5.72;;
2338;SDS011;1180;51.438;6.978;2023-12-20T12:20:04;12.82;;;6.00;;
2338;SDS011;1180;51.438;6.978;2023-12-20T12:22:30;9.20;;;4.10;;
2338;SDS011;1180;51.438;6.978;2023-12-20T12:25:09;11.07;;;5.28;;
2338;SDS011;1180;51.438;6.978;2023-12-20T12:27:39;15.67;;;5.40;;
2338;SDS011;1180;51.438;6.978;2023-12-20T12:30:06;8.63;;;4.57;;
2338;SDS011;1180;51.438;6.978;2023-12-20T12:32:35;7.70;;;5.70;;
2338;SDS011;1180;51.438;6.978;2023-12-20T12:35:04;10.17;;;4.60;;
2338;SDS011;1180;51.438;6.978;2023-12-20T12:37:33;9.90;;;4.70;;
2338;SDS011;1180;51.438;6.978;2023-12-20T12:40:00;12.70;;;5.20;;
2338;SDS011;1180;51.438;6.978;2023-12-20T12:42:26;9.13;;;4.53;;
2338;SDS011;1180;51.438;6.978;2023-12-20T12:44:54;16.43;;;5.60;;
2338;SDS011;1180;51.438;6.978;2023-12-20T12:47:20;12.03;;;5.00;;
2338;SDS011;1180;51.438;6.978;2023-12-20T12:49:47;10.87;;;4.73;;
2338;SDS011;1180;51.438;6.978;2023-12-20T12:52:14;9.97;;;4.20;;
2338;SDS011;1180;51.438;6.978;2023-12-20T12:54:41;10.90;;;5.33;;
2338;SDS011;1180;51.438;6.978;2023-12-20T12:57:07;12.30;;;4.70;;
2338;SDS011;1180;51.438;6.978;2023-12-20T12:59:33;14.43;;;5.20;;
2338;SDS011;1180;51.438;6.978;2023-12-20T13:01:59;6.60;;;4.43;;
2338;SDS011;1180;51.438;6.978;2023-12-20T13:04:25;14.27;;;5.20;;
2338;SDS011;1180;51.438;6.978;2023-12-20T13:06:51;16.50;;;5.37;;
2338;SDS011;1180;51.438;6.978;2023-12-20T13:09:16;7.10;;;4.73;;
2338;SDS011;1180;51.438;6.978;2023-12-20T13:11:44;7.70;;;5.07;;
2338;SDS011;1180;51.438;6.978;2023-12-20T13:14:09;9.93;;;5.07;;
2338;SDS011;1180;51.438;6.978;2023-12-20T13:16:40;11.10;;;5.30;;
2338;SDS011;1180;51.438;6.978;2023-12-20T13:19:06;15.63;;;5.57;;
2338;SDS011;1180;51.438;6.978;2023-12-20T13:21:32;5.83;;;4.20;;
2338;SDS011;1180;51.438;6.978;2023-12-20T13:23:58;10.53;;;5.27;;
2338;SDS011;1180;51.438;6.978;2023-12-20T13:26:24;16.87;;;5.87;;
2338;SDS011;1180;51.438;6.978;2023-12-20T13:28:49;7.27;;;4.67;;
2338;SDS011;1180;51.438;6.978;2023-12-20T13:31:15;7.50;;;4.73;;
2338;SDS011;1180;51.438;6.978;2023-12-20T13:33:41;10.10;;;4.80;;
2338;SDS011;1180;51.438;6.978;2023-12-20T13:36:07;6.80;;;5.07;;
2338;SDS011;1180;51.438;6.978;2023-12-20T13:38:34;9.97;;;4.50;;
2338;SDS011;1180;51.438;6.978;2023-12-20T13:41:00;12.77;;;6.00;;
2338;SDS011;1180;51.438;6.978;2023-12-20T13:43:26;10.40;;;6.67;;
2338;SDS011;1180;51.438;6.978;2023-12-20T13:45:51;6.50;;;5.50;;
2338;SDS011;1180;51.438;6.978;2023-12-20T13:48:17;11.20;;;6.70;;
2338;SDS011;1180;51.438;6.978;2023-12-20T13:50:44;6.43;;;5.30;;
2338;SDS011;1180;51.438;6.978;2023-12-20T13:53:11;11.97;;;6.00;;
2338;SDS011;1180;51.438;6.978;2023-12-20T13:55:37;13.63;;;6.87;;
2338;SDS011;1180;51.438;6.978;2023-12-20T13:58:03;10.50;;;6.10;;
2338;SDS011;1180;51.438;6.978;2023-12-20T14:00:29;15.10;;;5.27;;
2338;SDS011;1180;51.438;6.978;2023-12-20T14:02:55;11.70;;;5.77;;
2338;SDS011;1180;51.438;6.978;2023-12-20T14:05:22;9.93;;;5.80;;
2338;SDS011;1180;51.438;6.978;2023-12-20T14:07:52;8.60;;;5.80;;
2338;SDS011;1180;51.438;6.978;2023-12-20T14:10:18;9.90;;;6.10;;
2338;SDS011;1180;51.438;6.978;2023-12-20T14:12:43;10.90;;;5.10;;
2338;SDS011;1180;51.438;6.978;2023-12-20T14:15:11;12.03;;;6.30;;
2338;SDS011;1180;51.438;6.978;2023-12-20T14:17:38;11.03;;;7.10;;
2338;SDS011;1180;51.438;6.978;2023-12-20T14:20:05;8.53;;;6.20;;
2338;SDS011;1180;51.438;6.978;2023-12-20T14:22:34;10.13;;;6.93;;
2338;SDS011;1180;51.438;6.978;2023-12-20T14:25:01;9.27;;;7.63;;
2338;SDS011;1180;51.438;6.978;2023-12-20T14:27:27;13.60;;;7.23;;
2338;SDS011;1180;51.438;6.978;2023-12-20T14:29:53;11.17;;;7.23;;
2338;SDS011;1180;51.438;6.978;2023-12-20T14:32:19;16.33;;;8.00;;
2338;SDS011;1180;51.438;6.978;2023-12-20T14:34:45;15.57;;;8.90;;
2338;SDS011;1180;51.438;6.978;2023-12-20T14:37:11;10.70;;;8.87;;
2338;SDS011;1180;51.438;6.978;2023-12-20T14:39:37;14.33;;;8.73;;
2338;SDS011;1180;51.438;6.978;2023-12-20T14:42:07;14.53;;;8.47;;
2338;SDS011;1180;51.438;6.978;2023-12-20T14:44:37;11.47;;;6.67;;
2338;SDS011;1180;51.438;6.978;2023-12-20T14:47:03;10.57;;;6.90;;
2338;SDS011;1180;51.438;6.978;2023-12-20T14:49:29;10.40;;;8.40;;
2338;SDS011;1180;51.438;6.978;2023-12-20T14:51:55;13.40;;;7.93;;
2338;SDS011;1180;51.438;6.978;2023-12-20T14:54:21;12.00;;;7.23;;
2338;SDS011;1180;51.438;6.978;2023-12-20T14:56:46;9.03;;;6.50;;
2338;SDS011;1180;51.438;6.978;2023-12-20T14:59:12;13.80;;;5.73;;
2338;SDS011;1180;51.438;6.978;2023-12-20T15:01:38;9.10;;;6.77;;
2338;SDS011;1180;51.438;6.978;2023-12-20T15:04:05;8.90;;;6.67;;
2338;SDS011;1180;51.438;6.978;2023-12-20T15:06:31;14.00;;;6.27;;